createdAt,value
2023-03-12T00:00:22.336Z,87.30
2023-03-12T00:02:50.160Z,87.46
2023-03-12T00:05:19.599Z,86.77
2023-03-12T00:07:47.422Z,86.06
2023-03-12T00:10:15.545Z,86.11
2023-03-12T00:12:43.357Z,87.08
2023-03-12T00:15:12.194Z,86.83
2023-03-12T00:17:39.869Z,87.04
2023-03-12T00:20:08.125Z,87.15
2023-03-12T00:22:37.395Z,87.09
2023-03-12T00:25:06.225Z,86.40
2023-03-12T00:27:34.232Z,86.07
2023-03-12T00:30:02.083Z,86.94
2023-03-12T00:32:29.811Z,87.09
2023-03-12T00:34:57.642Z,87.25
2023-03-12T00:37:25.323Z,86.79
2023-03-12T00:39:54.473Z,86.15
2023-03-12T00:42:22.150Z,86.76
2023-03-12T00:44:49.821Z,87.00
2023-03-12T00:47:17.561Z,88.98
2023-03-12T00:49:45.387Z,88.92
2023-03-12T00:52:13.273Z,88.96
2023-03-12T00:54:41.082Z,88.41
2023-03-12T00:57:10.221Z,89.28
2023-03-12T00:59:40.467Z,87.91
2023-03-12T01:02:08.664Z,88.55
2023-03-12T01:04:36.468Z,87.79
2023-03-12T01:07:04.303Z,87.08
2023-03-12T01:09:32.063Z,86.47
2023-03-12T01:11:59.787Z,87.71
2023-03-12T01:14:28.886Z,86.47
2023-03-12T01:16:56.625Z,86.86
2023-03-12T01:19:24.352Z,86.80
2023-03-12T01:21:52.050Z,86.61
2023-03-12T01:24:19.888Z,85.77
2023-03-12T01:26:47.709Z,86.39
2023-03-12T01:29:15.377Z,85.81
2023-03-12T01:31:44.611Z,85.82
2023-03-12T01:34:13.289Z,86.60
2023-03-12T01:36:41.475Z,86.22
2023-03-12T01:39:09.224Z,86.22
2023-03-12T01:41:37.134Z,86.15
2023-03-12T01:44:07.653Z,86.34
2023-03-12T01:46:36.744Z,85.47
2023-03-12T01:49:09.928Z,85.31
2023-03-12T01:51:41.236Z,86.40
2023-03-12T01:54:13.323Z,86.65
2023-03-12T01:56:42.498Z,87.02
2023-03-12T01:59:14.870Z,87.00
2023-03-12T02:01:43.841Z,86.78
2023-03-12T02:04:14.086Z,86.45
2023-03-12T02:06:50.303Z,87.29
2023-03-12T02:09:20.529Z,88.33
2023-03-12T02:11:48.849Z,86.82
2023-03-12T02:14:17.225Z,86.13
2023-03-12T02:16:45.518Z,85.89
2023-03-12T02:19:24.130Z,86.76
2023-03-12T02:21:52.123Z,86.16
2023-03-12T02:24:29.023Z,86.07
2023-03-12T02:26:58.616Z,86.73
2023-03-12T02:29:29.200Z,86.02
2023-03-12T02:31:59.214Z,86.02
2023-03-12T02:34:27.045Z,86.00
2023-03-12T02:36:54.941Z,84.91
2023-03-12T02:39:22.987Z,86.50
2023-03-12T02:41:55.162Z,86.15
2023-03-12T02:44:26.997Z,84.45
2023-03-12T02:46:57.399Z,85.82
2023-03-12T02:49:27.749Z,87.00
2023-03-12T02:51:57.615Z,85.81
2023-03-12T02:54:26.287Z,85.98
2023-03-12T02:56:54.328Z,85.43
2023-03-12T02:59:26.675Z,84.57
2023-03-12T03:01:55.461Z,85.72
2023-03-12T03:04:23.889Z,86.32
2023-03-12T03:06:51.872Z,85.76
2023-03-12T03:09:22.177Z,85.38
2023-03-12T03:11:50.254Z,85.45
2023-03-12T03:14:18.191Z,84.78
2023-03-12T03:16:47.315Z,84.81
2023-03-12T03:19:15.095Z,84.02
2023-03-12T03:21:43.854Z,83.51
2023-03-12T03:24:12.037Z,84.65
2023-03-12T03:26:39.871Z,85.62
2023-03-12T03:29:07.669Z,83.49
2023-03-12T03:31:35.677Z,84.72
2023-03-12T03:34:04.877Z,87.29
2023-03-12T03:36:32.565Z,88.81
2023-03-12T03:39:00.356Z,87.46
2023-03-12T03:41:28.176Z,86.63
2023-03-12T03:43:59.318Z,85.60
2023-03-12T03:46:27.911Z,84.87
2023-03-12T03:48:55.758Z,83.97
2023-03-12T03:51:24.980Z,84.08
2023-03-12T03:53:52.674Z,84.77
2023-03-12T03:56:20.814Z,84.00
2023-03-12T03:58:48.640Z,85.87
2023-03-12T04:01:16.749Z,85.62
2023-03-12T04:03:44.707Z,86.41
2023-03-12T04:06:12.938Z,86.13
2023-03-12T04:08:42.261Z,86.72
2023-03-12T04:11:11.010Z,89.23
2023-03-12T04:13:39.179Z,88.69
2023-03-12T04:16:08.168Z,89.40
2023-03-12T04:18:37.043Z,88.56
2023-03-12T04:21:05.968Z,86.67
2023-03-12T04:23:33.822Z,87.31
2023-03-12T04:26:03.140Z,87.17
2023-03-12T04:28:30.960Z,87.34
2023-03-12T04:31:01.076Z,87.51
2023-03-12T04:33:29.678Z,87.75
2023-03-12T04:35:58.091Z,88.33
2023-03-12T04:38:27.327Z,88.05
2023-03-12T04:41:04.056Z,86.67
2023-03-12T04:43:33.342Z,86.66
2023-03-12T04:46:01.282Z,88.29
2023-03-12T04:48:29.249Z,87.74
2023-03-12T04:50:57.266Z,87.04
2023-03-12T04:53:26.286Z,89.08
2023-03-12T04:55:54.106Z,89.05
2023-03-12T04:58:23.817Z,89.49
2023-03-12T05:00:51.715Z,90.16
2023-03-12T05:03:19.792Z,90.83
2023-03-12T05:05:47.578Z,91.55
2023-03-12T05:08:15.275Z,90.74
2023-03-12T05:10:45.409Z,89.51
2023-03-12T05:13:16.796Z,89.57
2023-03-12T05:15:47.505Z,91.11
2023-03-12T05:18:15.309Z,91.37
2023-03-12T05:20:43.136Z,91.12
2023-03-12T05:23:10.856Z,91.00
2023-03-12T05:25:40.788Z,91.41
2023-03-12T05:28:08.646Z,92.86
2023-03-12T05:30:36.461Z,91.79
2023-03-12T05:33:05.580Z,90.90
2023-03-12T05:35:33.460Z,90.09
2023-03-12T05:38:01.470Z,89.28
2023-03-12T05:40:29.521Z,89.58
2023-03-12T05:42:57.462Z,89.79
2023-03-12T05:45:25.229Z,89.51
2023-03-12T05:47:52.959Z,89.84
2023-03-12T05:50:22.112Z,88.79
2023-03-12T05:52:49.877Z,89.68
2023-03-12T05:55:17.792Z,88.12
2023-03-12T05:57:45.685Z,88.69
2023-03-12T06:00:15.327Z,88.95
2023-03-12T06:02:44.462Z,88.22
2023-03-12T06:05:12.348Z,88.88
2023-03-12T06:07:41.600Z,91.06
2023-03-12T06:10:10.810Z,89.19
2023-03-12T06:12:38.565Z,89.56
2023-03-12T06:15:07.079Z,89.27
2023-03-12T06:17:35.119Z,88.99
2023-03-12T06:20:02.937Z,88.30
2023-03-12T06:22:30.645Z,87.19
2023-03-12T06:24:59.871Z,86.26
2023-03-12T06:27:27.673Z,85.57
2023-03-12T06:29:55.398Z,86.48
2023-03-12T06:32:23.224Z,87.83
2023-03-12T06:34:51.024Z,88.33
2023-03-12T06:37:18.837Z,87.67
2023-03-12T06:39:46.598Z,86.69
2023-03-12T06:42:17.719Z,87.05
2023-03-12T06:44:45.475Z,86.02
2023-03-12T06:47:13.798Z,84.85
2023-03-12T06:49:42.610Z,84.46
2023-03-12T06:52:10.358Z,84.25
2023-03-12T06:54:38.170Z,83.74
2023-03-12T06:57:05.968Z,82.54
2023-03-12T06:59:35.251Z,80.74
2023-03-12T07:02:03.183Z,80.72
2023-03-12T07:04:31.004Z,79.89
2023-03-12T07:06:59.456Z,80.73
2023-03-12T07:09:27.404Z,80.61
2023-03-12T07:11:55.143Z,80.23
2023-03-12T07:14:22.834Z,81.16
2023-03-12T07:16:51.946Z,84.02
2023-03-12T07:19:19.845Z,82.52
2023-03-12T07:21:47.725Z,81.60
2023-03-12T07:24:15.535Z,80.00
2023-03-12T07:26:43.720Z,78.66
2023-03-12T07:29:11.535Z,79.57
2023-03-12T07:31:39.453Z,78.05
2023-03-12T07:34:08.717Z,77.95
2023-03-12T07:36:36.624Z,76.90
2023-03-12T07:39:05.360Z,75.07
2023-03-12T07:41:33.172Z,73.79
2023-03-12T07:44:01.072Z,71.37
2023-03-12T07:46:28.849Z,71.54
2023-03-12T07:48:56.761Z,70.02
2023-03-12T07:51:25.985Z,69.96
2023-03-12T07:53:53.943Z,69.41
2023-03-12T07:56:22.021Z,69.71
2023-03-12T07:58:49.962Z,69.15
2023-03-12T08:01:17.851Z,69.26
2023-03-12T08:03:45.686Z,68.38
2023-03-12T08:06:13.562Z,67.61
2023-03-12T08:08:42.854Z,67.33
2023-03-12T08:11:11.050Z,69.06
2023-03-12T08:13:38.858Z,66.94
2023-03-12T08:16:09.328Z,65.55
2023-03-12T08:18:37.404Z,65.99
2023-03-12T08:21:05.569Z,68.41
2023-03-12T08:23:33.326Z,67.61
2023-03-12T08:26:02.614Z,70.07
2023-03-12T08:28:30.890Z,72.53
2023-03-12T08:31:00.466Z,73.75
2023-03-12T08:33:28.341Z,74.15
2023-03-12T08:35:56.177Z,72.99
2023-03-12T08:38:24.302Z,73.34
2023-03-12T08:40:56.975Z,74.13
2023-03-12T08:43:29.021Z,73.26
2023-03-12T08:45:57.551Z,73.26
2023-03-12T08:48:25.496Z,71.95
2023-03-12T08:50:56.216Z,70.21
2023-03-12T08:53:24.043Z,69.61
2023-03-12T08:55:53.659Z,71.33
2023-03-12T08:58:21.427Z,69.91
2023-03-12T09:00:50.652Z,68.40
2023-03-12T09:03:18.748Z,68.44
2023-03-12T09:05:46.703Z,68.40
2023-03-12T09:08:14.572Z,68.81
2023-03-12T09:10:49.426Z,68.90
2023-03-12T09:13:17.498Z,69.12
2023-03-12T09:15:45.218Z,69.87
2023-03-12T09:18:14.497Z,69.39
2023-03-12T09:20:43.492Z,69.37
2023-03-12T09:23:11.194Z,69.84
2023-03-12T09:25:38.944Z,69.10
2023-03-12T09:28:06.770Z,69.29
2023-03-12T09:30:34.629Z,68.11
2023-03-12T09:33:02.498Z,66.54
2023-03-12T09:35:32.273Z,66.73
2023-03-12T09:38:00.147Z,66.88
2023-03-12T09:40:31.728Z,66.85
2023-03-12T09:43:02.870Z,67.65
2023-03-12T09:45:34.414Z,66.92
2023-03-12T09:48:04.316Z,65.42
2023-03-12T09:50:35.570Z,64.19
2023-03-12T09:53:05.977Z,64.63
2023-03-12T09:55:37.999Z,64.79
2023-03-12T09:58:06.182Z,64.31
2023-03-12T10:00:37.046Z,65.58
2023-03-12T10:03:29.312Z,65.75
2023-03-12T10:06:11.975Z,66.41
2023-03-12T10:08:53.027Z,65.30
2023-03-12T10:11:32.260Z,65.88
2023-03-12T10:14:24.149Z,65.61
2023-03-12T10:17:05.436Z,63.87
2023-03-12T10:19:45.301Z,64.50
2023-03-12T10:22:28.505Z,63.92
2023-03-12T10:25:06.792Z,65.32
2023-03-12T10:27:37.037Z,62.49
2023-03-12T10:30:17.759Z,63.61
2023-03-12T10:32:49.740Z,64.87
2023-03-12T10:35:21.768Z,64.08
2023-03-12T10:37:54.704Z,62.80
2023-03-12T10:40:24.313Z,62.95
2023-03-12T10:42:52.810Z,63.91
2023-03-12T10:45:32.975Z,62.62
2023-03-12T10:48:06.348Z,62.88
2023-03-12T10:50:35.542Z,62.76
2023-03-12T10:53:20.319Z,63.02
2023-03-12T10:56:03.840Z,63.37
2023-03-12T10:58:37.220Z,62.76
2023-03-12T11:01:07.153Z,62.99
2023-03-12T11:03:35.204Z,63.62
2023-03-12T11:06:04.477Z,63.11
2023-03-12T11:08:35.462Z,62.65
2023-03-12T11:11:04.850Z,62.98
2023-03-12T11:13:34.258Z,61.59
2023-03-12T11:16:03.839Z,59.63
2023-03-12T11:18:34.564Z,59.29
2023-03-12T11:21:17.518Z,60.35
2023-03-12T11:24:04.753Z,60.59
2023-03-12T11:26:36.035Z,60.64
2023-03-12T11:29:08.194Z,60.74
2023-03-12T11:31:41.005Z,60.53
2023-03-12T11:34:15.009Z,59.08
2023-03-12T11:36:54.441Z,60.21
2023-03-12T11:39:31.669Z,60.05
2023-03-12T11:42:17.266Z,59.82
2023-03-12T11:44:57.140Z,59.53
2023-03-12T11:47:39.032Z,61.13
2023-03-12T11:50:29.657Z,59.24
2023-03-12T11:53:24.245Z,60.81
2023-03-12T11:56:04.272Z,60.64
2023-03-12T11:58:46.049Z,60.74
2023-03-12T12:01:21.768Z,61.41
2023-03-12T12:04:35.044Z,60.17
2023-03-12T12:07:13.895Z,60.57
2023-03-12T12:09:48.736Z,59.70
2023-03-12T12:12:28.515Z,61.14
2023-03-12T12:15:11.802Z,61.75
2023-03-12T12:17:53.758Z,61.93
2023-03-12T12:20:34.085Z,61.07
2023-03-12T12:23:11.470Z,62.41
2023-03-12T12:26:05.525Z,63.60
2023-03-12T12:28:57.326Z,63.03
2023-03-12T12:31:37.642Z,65.00
2023-03-12T12:34:44.464Z,64.55
2023-03-12T12:37:39.426Z,64.65
2023-03-12T12:40:18.638Z,64.85
2023-03-12T12:42:56.305Z,64.48
2023-03-12T12:45:29.028Z,64.77
2023-03-12T12:48:04.031Z,66.83
2023-03-12T12:50:36.635Z,68.73
2023-03-12T12:53:17.074Z,70.69
2023-03-12T12:55:50.886Z,71.29
2023-03-12T12:58:23.289Z,71.11
2023-03-12T13:00:54.414Z,72.37
2023-03-12T13:03:24.651Z,74.46
2023-03-12T13:05:58.419Z,76.15
2023-03-12T13:09:01.681Z,76.99
2023-03-12T13:11:41.355Z,77.81
2023-03-12T13:14:21.560Z,80.28
2023-03-12T13:16:51.219Z,79.53
2023-03-12T13:19:27.083Z,81.05
2023-03-12T13:22:11.039Z,80.21
2023-03-12T13:24:45.648Z,81.87
2023-03-12T13:27:20.780Z,82.24
2023-03-12T13:29:55.069Z,82.30
2023-03-12T13:33:07.251Z,83.54
2023-03-12T13:35:38.651Z,85.61
2023-03-12T13:38:08.829Z,85.79
2023-03-12T13:41:05.114Z,83.47
2023-03-12T13:43:43.127Z,83.90
2023-03-12T13:46:29.980Z,85.30
2023-03-12T13:49:04.698Z,84.63
2023-03-12T13:51:32.684Z,84.65
2023-03-12T13:54:02.429Z,86.39
2023-03-12T13:56:32.756Z,87.89
2023-03-12T13:59:02.456Z,85.55
2023-03-12T14:01:32.970Z,87.63
2023-03-12T14:04:06.902Z,86.17
2023-03-12T14:06:50.132Z,86.65
2023-03-12T14:09:26.822Z,88.16
2023-03-12T14:12:05.861Z,88.77
2023-03-12T14:15:08.664Z,89.06
2023-03-12T14:17:42.587Z,90.43
2023-03-12T14:20:17.894Z,89.84
2023-03-12T14:22:51.655Z,88.91
2023-03-12T14:25:30.116Z,88.50
2023-03-12T14:27:58.164Z,89.71
2023-03-12T14:30:32.839Z,90.52
2023-03-12T14:33:03.747Z,88.89
2023-03-12T14:35:39.473Z,88.47
2023-03-12T14:38:13.203Z,87.22
2023-03-12T14:40:45.950Z,86.66
2023-03-12T14:43:26.119Z,90.04
2023-03-12T14:45:57.205Z,90.40
2023-03-12T14:48:28.465Z,90.60
2023-03-12T14:50:58.915Z,90.96
2023-03-12T14:53:29.352Z,93.52
2023-03-12T14:56:05.411Z,90.88
2023-03-12T14:58:34.201Z,88.67
2023-03-12T15:01:04.943Z,88.99
2023-03-12T15:03:41.696Z,88.08
2023-03-12T15:06:18.998Z,87.52
2023-03-12T15:08:47.225Z,89.03
2023-03-12T15:11:15.068Z,90.26
2023-03-12T15:13:42.871Z,93.86
2023-03-12T15:16:10.912Z,90.91
2023-03-12T15:18:39.212Z,92.62
2023-03-12T15:21:07.652Z,90.08
2023-03-12T15:23:38.807Z,87.92
2023-03-12T15:26:11.650Z,86.79
2023-03-12T15:28:40.290Z,86.63
2023-03-12T15:31:11.834Z,86.39
2023-03-12T15:33:41.045Z,89.55
2023-03-12T15:36:25.416Z,89.26
2023-03-12T15:38:57.851Z,90.86
2023-03-12T15:41:29.134Z,91.36
2023-03-12T15:43:58.890Z,92.13
2023-03-12T15:46:28.241Z,95.56
2023-03-12T15:48:58.638Z,94.96
2023-03-12T15:51:33.660Z,93.93
2023-03-12T15:54:06.892Z,92.85
2023-03-12T15:56:36.711Z,94.62
2023-03-12T15:59:20.024Z,95.54
2023-03-12T16:01:49.593Z,95.27
2023-03-12T16:04:17.712Z,92.84
2023-03-12T16:06:48.839Z,93.37
2023-03-12T16:09:21.806Z,90.74
2023-03-12T16:11:50.242Z,90.88
2023-03-12T16:14:21.310Z,90.09
2023-03-12T16:16:49.371Z,91.18
2023-03-12T16:19:19.106Z,91.12
2023-03-12T16:21:47.416Z,91.07
2023-03-12T16:24:16.519Z,90.15
2023-03-12T16:26:51.558Z,90.02
2023-03-12T16:29:20.508Z,89.51
2023-03-12T16:31:52.644Z,91.66
2023-03-12T16:34:20.433Z,92.89
2023-03-12T16:36:48.271Z,90.67
2023-03-12T16:39:17.754Z,90.19
2023-03-12T16:41:48.472Z,90.63
2023-03-12T16:44:20.713Z,91.81
2023-03-12T16:46:48.574Z,93.98
2023-03-12T16:49:20.785Z,93.84
2023-03-12T16:51:48.798Z,92.04
2023-03-12T16:54:16.643Z,92.41
2023-03-12T16:56:49.162Z,90.93
2023-03-12T16:59:25.351Z,92.70
2023-03-12T17:01:53.332Z,91.84
2023-03-12T17:04:21.105Z,92.41
2023-03-12T17:06:48.891Z,92.86
2023-03-12T17:09:16.637Z,93.29
2023-03-12T17:11:44.453Z,92.10
2023-03-12T17:14:19.179Z,95.13
2023-03-12T17:16:46.977Z,95.52
2023-03-12T17:19:14.967Z,95.25
2023-03-12T17:21:44.117Z,93.87
2023-03-12T17:24:13.938Z,93.26
2023-03-12T17:26:42.128Z,95.38
2023-03-12T17:29:09.882Z,97.64
2023-03-12T17:31:39.104Z,95.93
2023-03-12T17:34:07.270Z,96.28
2023-03-12T17:36:37.785Z,97.62
2023-03-12T17:39:05.955Z,97.51
2023-03-12T17:41:34.002Z,97.08
2023-03-12T17:44:03.880Z,96.30
2023-03-12T17:46:32.148Z,98.67
2023-03-12T17:49:01.435Z,97.50
2023-03-12T17:51:29.223Z,97.10
2023-03-12T17:53:56.943Z,97.08
2023-03-12T17:56:24.748Z,98.01
2023-03-12T17:58:52.757Z,98.43
2023-03-12T18:01:20.677Z,97.19
2023-03-12T18:03:51.206Z,97.95
2023-03-12T18:06:20.464Z,97.95
2023-03-12T18:08:48.382Z,97.36
2023-03-12T18:11:16.881Z,97.23
2023-03-12T18:13:44.951Z,98.07
2023-03-12T18:16:13.701Z,97.71
2023-03-12T18:18:42.250Z,98.92
2023-03-12T18:21:10.102Z,100.00
2023-03-12T18:23:39.199Z,99.42
2023-03-12T18:26:06.976Z,100.00
2023-03-12T18:28:34.748Z,100.00
2023-03-12T18:31:02.517Z,100.00
2023-03-12T18:33:30.842Z,100.00
2023-03-12T18:35:58.765Z,100.00
2023-03-12T18:38:26.648Z,99.95
2023-03-12T18:41:03.394Z,99.82
2023-03-12T18:43:31.356Z,100.00
2023-03-12T18:45:59.172Z,100.00
2023-03-12T18:48:27.052Z,100.00
2023-03-12T18:50:54.976Z,99.66
2023-03-12T18:53:22.984Z,100.00
2023-03-12T18:55:56.802Z,99.06
2023-03-12T18:58:25.828Z,99.99
2023-03-12T19:00:54.074Z,100.00
2023-03-12T19:03:22.732Z,98.88
2023-03-12T19:06:00.971Z,98.94
2023-03-12T19:08:28.796Z,98.92
2023-03-12T19:10:58.039Z,100.00
2023-03-12T19:13:26.074Z,100.00
2023-03-12T19:15:59.909Z,100.00
2023-03-12T19:18:28.283Z,100.00
2023-03-12T19:20:56.236Z,100.00
2023-03-12T19:23:24.604Z,100.00
2023-03-12T19:25:52.329Z,100.00
2023-03-12T19:28:21.600Z,100.00
2023-03-12T19:30:49.523Z,100.00
2023-03-12T19:33:17.430Z,100.00
2023-03-12T19:35:45.665Z,100.00
2023-03-12T19:38:13.373Z,100.00
2023-03-12T19:40:41.056Z,100.00
2023-03-12T19:43:08.927Z,100.00
2023-03-12T19:45:38.484Z,100.00
2023-03-12T19:48:06.732Z,100.00
2023-03-12T19:50:34.670Z,100.00
2023-03-12T19:53:02.774Z,100.00
2023-03-12T19:55:30.542Z,100.00
2023-03-12T19:57:58.413Z,100.00
2023-03-12T20:00:26.305Z,100.00
2023-03-12T20:02:55.737Z,100.00
2023-03-12T20:05:23.545Z,100.00
2023-03-12T20:07:52.249Z,100.00
2023-03-12T20:10:20.521Z,100.00
2023-03-12T20:12:48.421Z,100.00
2023-03-12T20:15:16.380Z,100.00
2023-03-12T20:17:44.278Z,100.00
2023-03-12T20:20:14.410Z,99.28
2023-03-12T20:22:42.113Z,99.43
2023-03-12T20:25:11.137Z,99.85
2023-03-12T20:27:39.240Z,99.68
2023-03-12T20:30:08.315Z,100.00
2023-03-12T20:32:36.299Z,100.00
2023-03-12T20:35:04.319Z,99.94
2023-03-12T20:37:33.938Z,98.41
2023-03-12T20:40:01.764Z,100.00
2023-03-12T20:42:29.526Z,98.96
2023-03-12T20:44:57.327Z,99.58
2023-03-12T20:47:25.149Z,100.00
2023-03-12T20:49:53.081Z,99.46
2023-03-12T20:52:20.793Z,98.93
2023-03-12T20:54:49.958Z,99.17
2023-03-12T20:57:17.785Z,100.00
2023-03-12T20:59:45.540Z,100.00
2023-03-12T21:02:14.794Z,100.00
2023-03-12T21:04:43.447Z,100.00
2023-03-12T21:07:11.278Z,100.00
2023-03-12T21:09:39.001Z,100.00
2023-03-12T21:12:08.112Z,100.00
2023-03-12T21:14:35.808Z,100.00
2023-03-12T21:17:03.830Z,100.00
2023-03-12T21:19:32.012Z,100.00
2023-03-12T21:21:59.736Z,100.00
2023-03-12T21:24:27.517Z,99.92
2023-03-12T21:26:55.226Z,99.13
2023-03-12T21:29:24.344Z,99.20
2023-03-12T21:31:53.782Z,100.00
2023-03-12T21:34:21.679Z,100.00
2023-03-12T21:36:49.495Z,100.00
2023-03-12T21:39:18.188Z,99.36
2023-03-12T21:41:46.022Z,100.00
2023-03-12T21:44:16.398Z,99.30
2023-03-12T21:46:45.821Z,98.65
2023-03-12T21:49:17.947Z,98.97
2023-03-12T21:51:46.226Z,98.86
2023-03-12T21:54:14.178Z,100.00
2023-03-12T21:56:41.959Z,100.00
2023-03-12T21:59:10.641Z,99.38
2023-03-12T22:01:38.533Z,98.30
2023-03-12T22:04:07.819Z,100.00
2023-03-12T22:06:35.628Z,100.00
2023-03-12T22:09:03.677Z,100.00
2023-03-12T22:11:31.448Z,100.00
2023-03-12T22:13:59.317Z,100.00
2023-03-12T22:16:27.300Z,100.00
2023-03-12T22:18:55.016Z,100.00
2023-03-12T22:21:25.212Z,100.00
2023-03-12T22:23:54.538Z,100.00
2023-03-12T22:26:23.617Z,100.00
2023-03-12T22:28:52.309Z,100.00
2023-03-12T22:31:21.480Z,100.00
2023-03-12T22:33:49.883Z,100.00
2023-03-12T22:36:19.021Z,100.00
2023-03-12T22:38:48.699Z,100.00
2023-03-12T22:41:18.394Z,100.00
2023-03-12T22:43:47.215Z,100.00
2023-03-12T22:46:16.982Z,100.00
2023-03-12T22:48:45.447Z,100.00
2023-03-12T22:51:13.674Z,100.00
2023-03-12T22:53:41.422Z,100.00
2023-03-12T22:56:12.627Z,100.00
2023-03-12T22:58:41.054Z,99.96
2023-03-12T23:01:11.250Z,100.00
2023-03-12T23:03:40.999Z,100.00
2023-03-12T23:06:10.787Z,100.00
2023-03-12T23:08:39.197Z,100.00
2023-03-12T23:11:08.482Z,100.00
2023-03-12T23:13:40.145Z,99.78
2023-03-12T23:16:10.524Z,100.00
2023-03-12T23:18:39.080Z,100.00
2023-03-12T23:21:09.479Z,100.00
2023-03-12T23:23:39.465Z,100.00
2023-03-12T23:26:07.231Z,99.94
2023-03-12T23:28:35.137Z,98.33
2023-03-12T23:31:08.233Z,99.11
2023-03-12T23:33:37.238Z,98.85
2023-03-12T23:36:07.127Z,99.42
2023-03-12T23:38:37.514Z,97.68
2023-03-12T23:41:06.742Z,96.79
2023-03-12T23:43:34.733Z,98.83
2023-03-12T23:46:05.586Z,98.00
2023-03-12T23:48:36.690Z,97.07
2023-03-12T23:51:06.654Z,97.36
2023-03-12T23:53:35.023Z,98.03
2023-03-12T23:56:04.528Z,98.23
2023-03-12T23:58:32.342Z,97.87
